createdAt,value
2024-05-09T00:00:43.372Z,3.63
2024-05-09T00:03:11.834Z,2.90
2024-05-09T00:05:41.830Z,3.40
2024-05-09T00:08:10.417Z,3.97
2024-05-09T00:10:39.619Z,3.97
2024-05-09T00:13:08.534Z,3.78
2024-05-09T00:15:36.513Z,3.67
2024-05-09T00:18:05.387Z,3.58
2024-05-09T00:20:38.513Z,4.55
2024-05-09T00:23:12.691Z,3.92
2024-05-09T00:25:41.084Z,4.38
2024-05-09T00:28:08.154Z,3.57
2024-05-09T00:30:36.941Z,3.65
2024-05-09T00:33:09.483Z,3.97
2024-05-09T00:35:38.415Z,4.00
2024-05-09T00:38:06.174Z,3.80
2024-05-09T00:40:40.889Z,2.97
2024-05-09T00:43:11.258Z,3.58
2024-05-09T00:45:38.820Z,3.40
2024-05-09T00:48:08.362Z,3.30
2024-05-09T00:50:39.866Z,2.42
2024-05-09T00:53:08.696Z,1.70
2024-05-09T00:55:37.937Z,1.25
2024-05-09T00:58:06.451Z,1.67
2024-05-09T01:00:39.064Z,1.70
2024-05-09T01:03:12.816Z,3.42
2024-05-09T01:05:43.414Z,3.03
2024-05-09T01:08:11.560Z,4.38
2024-05-09T01:10:40.306Z,5.10
2024-05-09T01:13:10.674Z,4.72
2024-05-09T01:15:37.839Z,5.30
2024-05-09T01:18:09.763Z,5.00
2024-05-09T01:20:42.144Z,3.90
2024-05-09T01:23:12.238Z,4.50
2024-05-09T01:25:39.947Z,5.47
2024-05-09T01:28:07.463Z,5.78
2024-05-09T01:30:37.003Z,4.63
2024-05-09T01:33:07.900Z,4.90
2024-05-09T01:35:37.021Z,4.10
2024-05-09T01:38:04.444Z,5.13
2024-05-09T01:40:37.551Z,4.93
2024-05-09T01:43:11.407Z,4.00
2024-05-09T01:45:40.313Z,3.70
2024-05-09T01:48:08.579Z,4.80
2024-05-09T01:50:40.090Z,3.95
2024-05-09T01:53:10.686Z,3.80
2024-05-09T01:55:38.207Z,3.63
2024-05-09T01:58:05.545Z,3.65
2024-05-09T02:00:39.162Z,3.65
2024-05-09T02:03:11.257Z,3.63
2024-05-09T02:05:41.004Z,3.75
2024-05-09T02:08:12.853Z,2.70
2024-05-09T02:10:40.071Z,1.90
2024-05-09T02:13:10.509Z,2.03
2024-05-09T02:15:37.625Z,2.28
2024-05-09T02:18:05.412Z,2.05
2024-05-09T02:20:36.383Z,1.30
2024-05-09T02:23:06.179Z,1.70
2024-05-09T02:25:33.884Z,1.88
2024-05-09T02:28:01.195Z,1.90
2024-05-09T02:32:58.535Z,2.40
2024-05-09T02:35:26.836Z,1.58
2024-05-09T02:37:54.080Z,1.25
2024-05-09T02:40:28.931Z,1.10
2024-05-09T02:43:03.209Z,1.63
2024-05-09T02:45:30.321Z,2.10
2024-05-09T02:47:57.792Z,1.50
2024-05-09T02:50:33.596Z,1.52
2024-05-09T02:53:05.538Z,1.85
2024-05-09T02:55:32.984Z,2.03
2024-05-09T02:58:00.264Z,2.73
2024-05-09T03:00:36.612Z,1.80
2024-05-09T03:03:08.613Z,1.75
2024-05-09T03:05:37.373Z,2.20
2024-05-09T03:08:05.106Z,2.05
2024-05-09T03:10:36.289Z,2.13
2024-05-09T03:13:14.848Z,1.80
2024-05-09T03:15:43.496Z,1.83
2024-05-09T03:18:11.527Z,1.50
2024-05-09T03:20:39.753Z,2.10
2024-05-09T03:23:09.720Z,3.30
2024-05-09T03:25:38.080Z,3.55
2024-05-09T03:28:05.599Z,3.40
2024-05-09T03:30:40.078Z,3.15
2024-05-09T03:33:19.208Z,3.25
2024-05-09T03:35:48.637Z,2.87
2024-05-09T03:38:16.480Z,3.28
2024-05-09T03:40:48.765Z,3.05
2024-05-09T03:43:17.390Z,2.88
2024-05-09T03:45:45.052Z,2.38
2024-05-09T03:48:12.743Z,1.80
2024-05-09T03:50:40.270Z,2.70
2024-05-09T03:53:11.206Z,2.08
2024-05-09T03:55:39.069Z,2.58
2024-05-09T03:58:08.003Z,2.70
2024-05-09T04:00:38.953Z,2.20
2024-05-09T04:03:10.344Z,2.40
2024-05-09T04:05:41.941Z,2.80
2024-05-09T04:08:10.973Z,2.85
2024-05-09T04:10:38.598Z,3.50
2024-05-09T04:13:05.820Z,3.20
2024-05-09T04:15:33.034Z,2.90
2024-05-09T04:18:00.964Z,3.13
2024-05-09T04:20:36.662Z,3.55
2024-05-09T04:23:08.164Z,3.30
2024-05-09T04:25:36.186Z,2.47
2024-05-09T04:28:03.591Z,2.63
2024-05-09T04:30:37.439Z,2.75
2024-05-09T04:33:09.495Z,2.85
2024-05-09T04:35:38.970Z,2.35
2024-05-09T04:38:06.549Z,2.30
2024-05-09T04:40:36.359Z,2.72
2024-05-09T04:43:06.031Z,2.63
2024-05-09T04:45:33.595Z,2.95
2024-05-09T04:48:01.543Z,2.90
2024-05-09T04:50:35.861Z,2.40
2024-05-09T04:53:07.176Z,2.03
2024-05-09T04:55:36.257Z,1.92
2024-05-09T04:58:03.433Z,2.13
2024-05-09T05:00:36.339Z,3.00
2024-05-09T05:03:08.422Z,2.73
2024-05-09T05:05:40.828Z,2.60
2024-05-09T05:08:16.462Z,3.97
2024-05-09T05:10:44.696Z,3.70
2024-05-09T05:13:25.184Z,4.18
2024-05-09T05:15:56.930Z,4.13
2024-05-09T05:18:25.955Z,4.22
2024-05-09T05:20:53.601Z,4.22
2024-05-09T05:23:21.879Z,4.25
2024-05-09T05:25:52.411Z,4.38
2024-05-09T05:28:20.393Z,4.10
2024-05-09T05:30:47.574Z,5.57
2024-05-09T05:33:16.176Z,4.93
2024-05-09T05:35:43.593Z,4.90
2024-05-09T05:38:11.450Z,5.40
2024-05-09T05:40:40.028Z,4.80
2024-05-09T05:43:09.354Z,5.20
2024-05-09T05:45:36.929Z,5.97
2024-05-09T05:48:06.339Z,5.82
2024-05-09T05:50:37.218Z,5.43
2024-05-09T05:53:10.082Z,6.33
2024-05-09T05:55:41.759Z,7.53
2024-05-09T05:58:14.703Z,8.10
2024-05-09T06:00:42.765Z,8.05
2024-05-09T06:03:12.140Z,8.85
2024-05-09T06:05:40.717Z,8.47
2024-05-09T06:08:08.779Z,8.98
2024-05-09T06:10:39.477Z,8.68
2024-05-09T06:13:11.220Z,9.80
2024-05-09T06:15:38.768Z,9.68
2024-05-09T06:18:10.741Z,8.83
2024-05-09T06:20:40.386Z,8.70
2024-05-09T06:23:08.515Z,9.75
2024-05-09T06:25:36.704Z,9.57
2024-05-09T06:28:04.680Z,8.73
2024-05-09T06:30:38.749Z,8.70
2024-05-09T06:33:10.654Z,8.93
2024-05-09T06:35:39.699Z,9.23
2024-05-09T06:38:10.197Z,9.25
2024-05-09T06:40:42.371Z,10.68
2024-05-09T06:43:16.410Z,10.03
2024-05-09T06:45:46.863Z,11.50
2024-05-09T06:48:14.333Z,13.00
2024-05-09T06:50:42.021Z,12.60
2024-05-09T06:53:09.494Z,11.82
2024-05-09T06:55:37.998Z,11.77
2024-05-09T06:58:09.527Z,12.07
2024-05-09T07:00:39.880Z,11.93
2024-05-09T07:03:15.674Z,12.10
2024-05-09T07:05:45.478Z,12.50
2024-05-09T07:08:13.293Z,11.37
2024-05-09T07:10:40.579Z,11.40
2024-05-09T07:13:12.050Z,11.57
2024-05-09T07:15:40.097Z,11.95
2024-05-09T07:18:10.714Z,11.63
2024-05-09T07:20:38.618Z,11.33
2024-05-09T07:23:05.805Z,11.63
2024-05-09T07:25:32.986Z,11.35
2024-05-09T07:28:00.122Z,11.25
2024-05-09T07:30:33.119Z,11.52
2024-05-09T07:33:02.780Z,10.93
2024-05-09T07:35:30.924Z,10.68
2024-05-09T07:37:58.572Z,10.40
2024-05-09T07:40:33.131Z,10.98
2024-05-09T07:43:08.533Z,10.15
2024-05-09T07:45:48.414Z,10.17
2024-05-09T07:53:39.024Z,9.10
2024-05-09T07:56:09.967Z,9.60
2024-05-09T07:58:37.866Z,8.60
2024-05-09T08:01:05.864Z,8.63
2024-05-09T08:03:33.471Z,7.53
2024-05-09T08:06:00.829Z,6.80
2024-05-09T08:08:27.962Z,6.55
2024-05-09T08:10:55.169Z,6.80
2024-05-09T08:13:22.417Z,8.38
2024-05-09T08:15:49.838Z,7.50
2024-05-09T08:18:17.157Z,7.75
2024-05-09T08:20:47.499Z,8.07
2024-05-09T08:23:14.606Z,7.03
2024-05-09T08:25:41.767Z,6.45
2024-05-09T08:28:09.063Z,6.20
2024-05-09T08:30:37.921Z,7.00
2024-05-09T08:33:06.846Z,6.30
2024-05-09T08:35:35.590Z,6.27
2024-05-09T08:38:04.173Z,6.35
2024-05-09T08:40:35.688Z,6.55
2024-05-09T08:43:09.323Z,7.32
2024-05-09T08:45:39.026Z,6.75
2024-05-09T08:48:08.933Z,6.37
2024-05-09T08:50:40.804Z,6.43
2024-05-09T08:53:09.040Z,6.30
2024-05-09T08:55:40.545Z,6.82
2024-05-09T08:58:12.975Z,7.13
2024-05-09T09:00:42.490Z,7.13
2024-05-09T09:03:11.143Z,6.30
2024-05-09T09:05:40.606Z,6.43
2024-05-09T09:08:08.981Z,6.90
2024-05-09T09:10:38.388Z,6.43
2024-05-09T09:13:09.417Z,6.20
2024-05-09T09:15:47.863Z,6.55
2024-05-09T09:18:16.525Z,6.22
2024-05-09T09:20:44.796Z,6.47
2024-05-09T09:23:12.046Z,6.70
2024-05-09T09:25:42.646Z,5.77
2024-05-09T09:28:10.109Z,5.80
2024-05-09T09:30:41.260Z,6.38
2024-05-09T09:33:12.348Z,5.90
2024-05-09T09:35:40.756Z,6.15
2024-05-09T09:38:10.070Z,6.43
2024-05-09T09:40:44.799Z,6.97
2024-05-09T09:43:20.202Z,6.47
2024-05-09T09:45:50.945Z,6.95
2024-05-09T09:48:20.120Z,6.65
2024-05-09T09:50:48.092Z,6.33
2024-05-09T09:53:16.933Z,6.80
2024-05-09T09:55:44.215Z,7.00
2024-05-09T09:58:14.360Z,6.40
2024-05-09T10:00:42.261Z,5.50
2024-05-09T10:03:09.767Z,6.50
2024-05-09T10:05:38.350Z,6.60
2024-05-09T10:08:08.556Z,5.75
2024-05-09T10:10:36.693Z,5.55
2024-05-09T10:13:05.341Z,5.43
2024-05-09T10:15:52.399Z,5.33
2024-05-09T10:18:27.033Z,5.82
2024-05-09T10:20:56.538Z,7.25
2024-05-09T10:23:31.128Z,5.65
2024-05-09T10:26:00.069Z,4.80
2024-05-09T10:28:39.377Z,5.00
2024-05-09T10:31:15.525Z,4.90
2024-05-09T10:33:49.096Z,4.53
2024-05-09T10:36:25.171Z,4.18
2024-05-09T10:38:53.974Z,4.80
2024-05-09T10:41:22.639Z,5.53
2024-05-09T10:43:50.395Z,5.25
2024-05-09T10:46:20.784Z,5.28
2024-05-09T10:48:48.801Z,4.57
2024-05-09T10:51:19.760Z,4.47
2024-05-09T10:53:49.376Z,4.40
2024-05-09T10:56:17.395Z,4.07
2024-05-09T10:58:44.939Z,4.30
2024-05-09T11:01:13.453Z,4.50
2024-05-09T11:03:41.184Z,3.92
2024-05-09T11:06:09.791Z,4.23
2024-05-09T11:08:37.782Z,4.78
2024-05-09T11:11:07.733Z,4.38
2024-05-09T11:13:37.875Z,4.45
2024-05-09T11:16:07.419Z,4.72
2024-05-09T11:18:38.195Z,4.20
2024-05-09T11:21:14.656Z,4.85
2024-05-09T11:23:42.132Z,4.55
2024-05-09T11:26:10.901Z,4.72
2024-05-09T11:28:38.247Z,4.13
2024-05-09T11:31:07.881Z,4.10
2024-05-09T11:33:44.061Z,4.53
2024-05-09T11:36:11.549Z,4.50
2024-05-09T11:38:38.684Z,4.97
2024-05-09T11:41:06.393Z,5.75
2024-05-09T11:43:33.853Z,5.57
2024-05-09T11:46:02.651Z,5.55
2024-05-09T11:48:30.633Z,4.65
2024-05-09T11:50:57.931Z,6.15
2024-05-09T11:53:25.074Z,5.22
2024-05-09T11:55:52.347Z,5.10
2024-05-09T11:58:21.433Z,6.25
2024-05-09T12:00:49.041Z,5.78
2024-05-09T12:03:16.604Z,5.35
2024-05-09T12:05:43.963Z,5.55
2024-05-09T12:08:13.160Z,4.93
2024-05-09T12:10:40.793Z,5.97
2024-05-09T12:13:08.324Z,6.00
2024-05-09T12:15:38.074Z,5.47
2024-05-09T12:18:07.179Z,5.45
2024-05-09T12:20:38.145Z,5.10
2024-05-09T12:23:09.123Z,6.03
2024-05-09T12:25:37.902Z,5.65
2024-05-09T12:28:05.553Z,5.75
2024-05-09T12:30:37.537Z,5.45
2024-05-09T12:33:09.023Z,6.47
2024-05-09T12:35:36.621Z,5.43
2024-05-09T12:38:03.962Z,5.80
2024-05-09T12:40:36.062Z,6.43
2024-05-09T12:43:09.876Z,5.78
2024-05-09T12:45:38.378Z,5.77
2024-05-09T12:48:08.372Z,6.40
2024-05-09T12:50:36.847Z,5.90
2024-05-09T12:53:04.954Z,5.65
2024-05-09T12:55:41.353Z,6.05
2024-05-09T12:58:17.308Z,6.17
2024-05-09T13:00:45.506Z,6.97
2024-05-09T13:03:13.137Z,6.28
2024-05-09T13:05:46.830Z,7.15
2024-05-09T13:08:14.286Z,7.38
2024-05-09T13:10:41.870Z,6.93
2024-05-09T13:13:12.603Z,7.07
2024-05-09T13:15:40.168Z,6.78
2024-05-09T13:18:07.841Z,6.07
2024-05-09T13:20:37.211Z,6.50
2024-05-09T13:23:06.758Z,6.43
2024-05-09T13:25:35.289Z,7.07
2024-05-09T13:28:03.481Z,7.40
2024-05-09T13:30:39.053Z,7.13
2024-05-09T13:33:10.657Z,6.97
2024-05-09T13:35:38.711Z,6.90
2024-05-09T13:38:06.033Z,6.72
2024-05-09T13:40:35.583Z,6.38
2024-05-09T13:43:05.129Z,6.32
2024-05-09T13:45:32.812Z,6.35
2024-05-09T13:48:00.394Z,6.67
2024-05-09T13:50:33.674Z,6.32
2024-05-09T13:53:05.065Z,7.10
2024-05-09T13:55:33.402Z,6.18
2024-05-09T13:58:01.287Z,6.65
2024-05-09T14:00:41.732Z,5.93
2024-05-09T14:03:14.798Z,6.28
2024-05-09T14:05:42.383Z,5.63
2024-05-09T14:08:09.710Z,6.10
2024-05-09T14:10:43.516Z,6.60
2024-05-09T14:13:11.431Z,7.07
2024-05-09T14:15:39.187Z,7.43
2024-05-09T14:18:11.409Z,6.60
2024-05-09T14:20:40.930Z,6.13
2024-05-09T14:23:08.086Z,7.00
2024-05-09T14:25:38.927Z,7.20
2024-05-09T14:28:09.119Z,6.35
2024-05-09T14:30:38.123Z,6.75
2024-05-09T14:33:07.827Z,7.22
2024-05-09T14:35:37.622Z,6.30
2024-05-09T14:38:05.510Z,6.87
2024-05-09T14:43:03.662Z,7.88
2024-05-09T14:45:30.960Z,6.43
2024-05-09T14:47:58.222Z,7.05
2024-05-09T14:50:34.627Z,6.43
2024-05-09T14:53:05.949Z,6.22
2024-05-09T14:55:35.624Z,6.70
2024-05-09T14:58:03.586Z,7.35
2024-05-09T15:00:35.860Z,7.05
2024-05-09T15:03:05.510Z,7.10
2024-05-09T15:05:32.728Z,7.88
2024-05-09T15:08:00.217Z,9.15
2024-05-09T15:10:34.362Z,9.43
2024-05-09T15:13:04.056Z,9.27
2024-05-09T15:15:31.620Z,9.20
2024-05-09T15:17:59.254Z,9.43
2024-05-09T15:20:34.340Z,9.52
2024-05-09T15:23:04.035Z,11.70
2024-05-09T15:25:31.311Z,11.23
2024-05-09T15:27:58.545Z,13.03
2024-05-09T15:32:56.498Z,10.60
2024-05-09T15:35:23.735Z,11.77
2024-05-09T15:37:50.949Z,13.18
2024-05-09T15:40:26.391Z,13.93
2024-05-09T15:43:02.769Z,13.23
2024-05-09T15:45:30.030Z,11.43
2024-05-09T15:47:58.257Z,11.73
2024-05-09T15:50:35.575Z,10.85
2024-05-09T15:53:07.625Z,10.50
2024-05-09T15:55:35.772Z,12.23
2024-05-09T15:58:04.140Z,11.70
2024-05-09T16:00:37.713Z,11.60
2024-05-09T16:03:12.786Z,12.10
2024-05-09T16:05:41.793Z,12.00
2024-05-09T16:08:09.317Z,11.98
2024-05-09T16:10:42.408Z,11.88
2024-05-09T16:13:11.647Z,12.10
2024-05-09T16:15:39.066Z,11.70
2024-05-09T16:18:06.758Z,12.50
2024-05-09T16:20:39.557Z,12.20
2024-05-09T16:23:09.620Z,13.25
2024-05-09T16:25:37.530Z,13.20
2024-05-09T16:28:08.670Z,12.20
2024-05-09T16:30:38.516Z,13.83
2024-05-09T16:33:06.644Z,13.65
2024-05-09T16:35:34.951Z,13.18
2024-05-09T16:38:03.118Z,13.70
2024-05-09T16:40:37.578Z,15.40
2024-05-09T16:43:08.196Z,40.47
2024-05-09T16:45:37.185Z,18.52
2024-05-09T16:48:04.857Z,13.88
2024-05-09T16:50:34.488Z,13.52
2024-05-09T16:53:03.971Z,12.65
2024-05-09T16:55:31.662Z,13.03
2024-05-09T16:57:59.195Z,12.55
2024-05-09T17:00:36.298Z,14.52
2024-05-09T17:03:10.174Z,14.45
2024-05-09T17:05:38.465Z,13.65
2024-05-09T17:08:06.558Z,14.77
2024-05-09T17:10:35.312Z,13.48
2024-05-09T17:13:04.981Z,13.73
2024-05-09T17:15:33.881Z,14.48
2024-05-09T17:18:02.029Z,13.20
2024-05-09T17:20:33.998Z,20.67
2024-05-09T17:23:04.576Z,24.48
2024-05-09T17:25:32.416Z,30.92
2024-05-09T17:28:06.349Z,33.53
2024-05-09T17:30:37.345Z,52.58
2024-05-09T17:33:08.527Z,31.43
2024-05-09T17:35:36.883Z,37.13
2024-05-09T17:38:05.774Z,15.30
2024-05-09T17:40:36.068Z,12.95
2024-05-09T17:43:06.425Z,15.57
2024-05-09T17:45:34.993Z,32.43
2024-05-09T17:48:02.850Z,135.85
2024-05-09T17:50:35.658Z,526.25
2024-05-09T17:53:06.071Z,117.45
2024-05-09T17:55:33.849Z,69.93
2024-05-09T17:58:01.543Z,32.40
2024-05-09T18:00:37.026Z,47.33
2024-05-09T18:03:08.552Z,60.20
2024-05-09T18:05:37.164Z,63.13
2024-05-09T18:08:05.593Z,470.23
2024-05-09T18:10:37.040Z,503.57
2024-05-09T18:13:07.197Z,149.38
2024-05-09T18:15:34.783Z,53.15
2024-05-09T18:18:03.344Z,94.90
2024-05-09T18:20:40.519Z,167.30
2024-05-09T18:23:13.145Z,75.10
2024-05-09T18:25:40.542Z,238.10
2024-05-09T18:28:08.349Z,962.92
2024-05-09T18:30:37.102Z,453.05
2024-05-09T18:33:07.729Z,203.68
2024-05-09T18:35:36.680Z,109.90
2024-05-09T18:38:05.360Z,51.30
2024-05-09T18:40:36.140Z,39.90
2024-05-09T18:43:07.242Z,29.17
2024-05-09T18:45:36.842Z,22.45
2024-05-09T18:48:05.396Z,29.03
2024-05-09T18:50:37.538Z,35.40
2024-05-09T18:53:07.469Z,16.35
2024-05-09T18:55:35.037Z,18.95
2024-05-09T18:58:02.570Z,22.17
2024-05-09T19:00:35.768Z,32.13
2024-05-09T19:03:09.682Z,281.15
2024-05-09T19:05:39.643Z,104.97
2024-05-09T19:08:08.143Z,213.50
2024-05-09T19:10:36.619Z,349.40
2024-05-09T19:13:09.320Z,283.87
2024-05-09T19:15:40.260Z,328.52
2024-05-09T19:18:08.250Z,43.00
2024-05-09T19:20:36.922Z,27.20
2024-05-09T19:23:06.854Z,17.65
2024-05-09T19:25:34.948Z,14.30
2024-05-09T19:28:02.998Z,15.48
2024-05-09T19:30:38.147Z,18.15
2024-05-09T19:33:09.845Z,256.15
2024-05-09T19:35:38.338Z,40.65
2024-05-09T19:38:05.906Z,32.60
2024-05-09T19:40:34.600Z,25.75
2024-05-09T19:43:03.382Z,32.17
2024-05-09T19:45:32.842Z,331.40
2024-05-09T19:48:00.742Z,43.58
2024-05-09T19:50:36.922Z,50.53
2024-05-09T19:53:10.211Z,22.50
2024-05-09T19:55:37.890Z,24.33
2024-05-09T19:58:07.077Z,38.60
2024-05-09T20:00:37.751Z,29.60
2024-05-09T20:03:07.387Z,14.67
2024-05-09T20:05:35.325Z,91.82
2024-05-09T20:08:02.853Z,51.72
2024-05-09T20:10:33.032Z,23.75
2024-05-09T20:13:02.743Z,19.73
2024-05-09T20:15:30.506Z,135.00
2024-05-09T20:17:57.811Z,245.27
2024-05-09T20:20:33.650Z,318.25
2024-05-09T20:23:06.470Z,117.90
2024-05-09T20:25:33.632Z,59.72
2024-05-09T20:28:01.022Z,31.43
2024-05-09T20:30:32.395Z,23.40
2024-05-09T20:33:03.871Z,31.05
2024-05-09T20:35:32.558Z,24.85
2024-05-09T20:38:01.650Z,20.48
2024-05-09T20:40:33.981Z,34.77
2024-05-09T20:43:04.703Z,23.55
2024-05-09T20:45:32.118Z,28.38
2024-05-09T20:47:59.687Z,37.03
2024-05-09T20:50:36.060Z,17.80
2024-05-09T20:53:09.768Z,17.67
2024-05-09T20:55:37.265Z,16.58
2024-05-09T20:58:04.585Z,17.27
2024-05-09T21:00:39.742Z,17.02
2024-05-09T21:03:10.646Z,17.73
2024-05-09T21:05:38.686Z,16.93
2024-05-09T21:08:06.350Z,16.55
2024-05-09T21:10:35.377Z,16.70
2024-05-09T21:13:03.688Z,15.70
2024-05-09T21:15:31.946Z,17.73
2024-05-09T21:17:59.427Z,16.40
2024-05-09T21:22:57.807Z,18.30
2024-05-09T21:25:25.130Z,17.55
2024-05-09T21:27:52.592Z,16.02
2024-05-09T21:30:31.532Z,17.80
2024-05-09T21:33:08.639Z,16.33
2024-05-09T21:35:36.638Z,16.05
2024-05-09T21:38:04.537Z,725.88
2024-05-09T21:40:35.081Z,999.90
2024-05-09T21:43:04.831Z,434.10
2024-05-09T21:45:32.475Z,164.18
2024-05-09T21:47:59.889Z,89.97
2024-05-09T21:50:36.085Z,55.58
2024-05-09T21:53:07.491Z,41.13
2024-05-09T21:55:35.038Z,36.23
2024-05-09T21:58:02.920Z,29.30
2024-05-09T22:00:36.327Z,22.65
2024-05-09T22:03:09.950Z,24.83
2024-05-09T22:05:39.105Z,22.90
2024-05-09T22:08:06.755Z,19.40
2024-05-09T22:10:36.154Z,20.73
2024-05-09T22:13:05.856Z,21.02
2024-05-09T22:15:39.434Z,21.10
2024-05-09T22:18:08.647Z,21.95
2024-05-09T22:20:39.175Z,21.70
2024-05-09T22:23:07.795Z,22.17
2024-05-09T22:25:41.146Z,20.77
2024-05-09T22:28:08.502Z,19.98
2024-05-09T22:30:39.084Z,20.48
2024-05-09T22:33:09.672Z,19.40
2024-05-09T22:35:38.255Z,19.60
2024-05-09T22:38:05.633Z,19.52
2024-05-09T22:40:42.485Z,18.88
2024-05-09T22:43:18.537Z,19.52
2024-05-09T22:45:45.913Z,19.33
2024-05-09T22:48:13.223Z,19.25
2024-05-09T22:50:41.228Z,20.27
2024-05-09T22:53:08.483Z,20.02
2024-05-09T22:55:35.656Z,20.27
2024-05-09T22:58:02.891Z,18.37
2024-05-09T23:00:32.323Z,18.98
2024-05-09T23:03:01.610Z,18.52
2024-05-09T23:05:29.521Z,19.45
2024-05-09T23:07:57.167Z,22.00
2024-05-09T23:10:31.654Z,21.57
2024-05-09T23:13:03.352Z,22.60
2024-05-09T23:15:30.725Z,22.58
2024-05-09T23:17:58.382Z,20.70
2024-05-09T23:20:33.470Z,20.35
2024-05-09T23:23:05.736Z,20.67
2024-05-09T23:25:32.912Z,18.77
2024-05-09T23:28:00.168Z,19.65
2024-05-09T23:30:34.870Z,20.55
2024-05-09T23:33:06.511Z,19.25
2024-05-09T23:35:33.808Z,17.00
2024-05-09T23:38:00.974Z,16.63
2024-05-09T23:40:37.618Z,16.52
2024-05-09T23:43:08.460Z,15.63
2024-05-09T23:45:36.409Z,17.27
2024-05-09T23:48:04.009Z,15.17
2024-05-09T23:50:36.079Z,16.15
2024-05-09T23:53:08.016Z,16.83
2024-05-09T23:55:36.604Z,15.55
2024-05-09T23:58:04.054Z,16.20
